createdAt,value
2023-02-12T00:02:18.864Z,7.51
2023-02-12T00:05:06.806Z,10.08
2023-02-12T00:07:41.953Z,11.02
2023-02-12T00:10:29.787Z,9.68
2023-02-12T00:13:04.024Z,8.24
2023-02-12T00:15:52.045Z,7.17
2023-02-12T00:18:33.993Z,7.40
2023-02-12T00:21:28.918Z,9.88
2023-02-12T00:24:16.799Z,10.71
2023-02-12T00:26:52.925Z,9.28
2023-02-12T00:29:40.810Z,7.97
2023-02-12T00:32:23.622Z,7.91
2023-02-12T00:35:04.789Z,10.31
2023-02-12T00:37:45.926Z,11.04
2023-02-12T00:40:26.890Z,9.68
2023-02-12T00:43:08.939Z,8.31
2023-02-12T00:45:52.199Z,7.49
2023-02-12T00:48:32.902Z,8.85
2023-02-12T00:51:13.999Z,10.80
2023-02-12T00:54:02.775Z,10.63
2023-02-12T00:56:43.750Z,9.15
2023-02-12T00:59:24.915Z,7.91
2023-02-12T01:02:05.772Z,7.25
2023-02-12T01:04:53.801Z,9.06
2023-02-12T01:07:48.048Z,11.08
2023-02-12T01:10:44.359Z,10.87
2023-02-12T01:13:21.490Z,9.37
2023-02-12T01:16:17.857Z,8.13
2023-02-12T01:18:56.089Z,7.31
2023-02-12T01:21:47.769Z,8.07
2023-02-12T01:24:23.294Z,10.68
2023-02-12T01:27:12.289Z,11.41
2023-02-12T01:29:53.998Z,10.09
2023-02-12T01:32:41.792Z,8.77
2023-02-12T01:35:23.777Z,7.86
2023-02-12T01:38:04.909Z,8.07
2023-02-12T01:40:45.961Z,10.38
2023-02-12T01:43:27.109Z,11.38
2023-02-12T01:46:09.014Z,10.13
2023-02-12T01:48:52.898Z,8.76
2023-02-12T01:51:34.968Z,7.87
2023-02-12T01:54:25.836Z,7.21
2023-02-12T01:57:01.380Z,7.47
2023-02-12T01:59:50.972Z,10.03
2023-02-12T02:02:27.234Z,11.61
2023-02-12T02:05:17.978Z,10.75
2023-02-12T02:08:00.962Z,9.35
2023-02-12T02:10:42.038Z,8.28
2023-02-12T02:13:48.807Z,7.54
2023-02-12T02:16:38.792Z,7.97
2023-02-12T02:19:49.957Z,10.65
2023-02-12T02:23:07.767Z,11.48
2023-02-12T02:26:22.072Z,9.81
2023-02-12T02:29:48.956Z,8.28
2023-02-12T02:32:29.879Z,8.55
2023-02-12T02:35:46.980Z,10.76
2023-02-12T02:38:36.879Z,11.15
2023-02-12T02:41:21.759Z,9.63
2023-02-12T02:44:04.098Z,8.27
2023-02-12T02:46:55.991Z,7.40
2023-02-12T02:49:50.902Z,8.15
2023-02-12T02:52:38.948Z,10.32
2023-02-12T02:55:23.085Z,11.18
2023-02-12T02:58:08.744Z,10.10
2023-02-12T03:01:00.798Z,8.61
2023-02-12T03:03:52.686Z,7.52
2023-02-12T03:06:52.737Z,7.99
2023-02-12T03:09:55.955Z,10.30
2023-02-12T03:12:48.079Z,10.91
2023-02-12T03:15:48.751Z,9.32
2023-02-12T03:18:41.863Z,7.86
2023-02-12T03:21:26.894Z,7.80
2023-02-12T03:24:21.942Z,9.85
2023-02-12T03:27:34.956Z,10.81
2023-02-12T03:30:16.953Z,9.12
2023-02-12T03:33:37.762Z,7.91
2023-02-12T03:36:21.876Z,7.93
2023-02-12T03:39:04.738Z,10.02
2023-02-12T03:42:03.761Z,10.79
2023-02-12T03:45:12.946Z,9.35
2023-02-12T03:48:20.747Z,7.90
2023-02-12T03:51:31.750Z,6.94
2023-02-12T03:54:15.740Z,7.31
2023-02-12T03:57:12.943Z,9.95
2023-02-12T03:59:55.849Z,10.87
2023-02-12T04:02:44.735Z,9.45
2023-02-12T04:05:31.093Z,8.12
2023-02-12T04:08:19.946Z,7.13
2023-02-12T04:11:27.925Z,7.50
2023-02-12T04:15:00.942Z,10.15
2023-02-12T04:17:57.725Z,9.87
2023-02-12T04:20:49.145Z,8.33
2023-02-12T04:23:55.924Z,7.21
2023-02-12T04:26:37.942Z,9.02
2023-02-12T04:29:43.930Z,9.99
2023-02-12T04:32:31.286Z,8.51
2023-02-12T04:35:31.727Z,7.17
2023-02-12T04:38:32.080Z,7.13
2023-02-12T04:41:14.761Z,9.18
2023-02-12T04:43:55.864Z,9.81
2023-02-12T04:46:36.729Z,8.48
2023-02-12T04:49:29.928Z,6.99
2023-02-12T04:52:11.950Z,6.17
2023-02-12T04:54:59.734Z,7.89
2023-02-12T04:57:40.728Z,8.96
2023-02-12T05:00:22.854Z,7.86
2023-02-12T05:03:03.723Z,6.61
2023-02-12T05:05:51.942Z,6.59
2023-02-12T05:08:33.737Z,8.74
2023-02-12T05:11:23.733Z,9.63
2023-02-12T05:13:58.351Z,8.41
2023-02-12T05:16:46.916Z,6.96
2023-02-12T05:19:28.921Z,6.00
2023-02-12T05:22:11.039Z,6.01
2023-02-12T05:24:52.931Z,8.07
2023-02-12T05:27:34.047Z,9.52
2023-02-12T05:30:21.913Z,8.66
2023-02-12T05:32:57.124Z,7.08
2023-02-12T05:35:44.909Z,5.94
2023-02-12T05:38:26.811Z,5.61
2023-02-12T05:41:30.719Z,7.63
2023-02-12T05:44:25.821Z,8.52
2023-02-12T05:47:13.939Z,6.96
2023-02-12T05:49:48.828Z,5.64
2023-02-12T05:52:36.704Z,4.82
2023-02-12T05:55:18.713Z,6.20
2023-02-12T05:58:06.924Z,8.07
2023-02-12T06:00:48.913Z,7.57
2023-02-12T06:03:36.842Z,6.17
2023-02-12T06:06:18.796Z,5.17
2023-02-12T06:09:07.700Z,4.46
2023-02-12T06:11:42.840Z,4.06
2023-02-12T06:14:31.975Z,5.86
2023-02-12T06:17:06.851Z,8.21
2023-02-12T06:19:54.708Z,8.66
2023-02-12T06:22:30.027Z,7.23
2023-02-12T06:25:17.706Z,5.90
2023-02-12T06:27:59.758Z,5.02
2023-02-12T06:30:47.920Z,4.38
2023-02-12T06:33:23.243Z,4.75
2023-02-12T06:36:11.716Z,7.22
2023-02-12T06:38:59.700Z,8.49
2023-02-12T06:41:40.897Z,7.19
2023-02-12T06:44:22.070Z,5.84
2023-02-12T06:47:05.766Z,4.97
2023-02-12T06:49:46.936Z,4.27
2023-02-12T06:52:29.762Z,4.01
2023-02-12T06:55:17.722Z,6.11
2023-02-12T06:58:12.912Z,7.60
2023-02-12T07:01:07.966Z,6.45
2023-02-12T07:03:57.850Z,5.24
2023-02-12T07:06:34.828Z,4.41
2023-02-12T07:09:22.905Z,3.87
2023-02-12T07:11:57.834Z,3.67
2023-02-12T07:14:45.725Z,5.79
2023-02-12T07:17:27.700Z,7.75
2023-02-12T07:20:23.692Z,7.35
2023-02-12T07:23:11.702Z,5.91
2023-02-12T07:25:53.983Z,4.98
2023-02-12T07:28:49.704Z,4.37
2023-02-12T07:31:38.710Z,3.94
2023-02-12T07:34:13.871Z,3.71
2023-02-12T07:37:01.709Z,5.29
2023-02-12T07:39:49.699Z,7.64
2023-02-12T07:42:44.686Z,7.22
2023-02-12T07:45:39.748Z,6.14
2023-02-12T07:48:28.701Z,5.43
2023-02-12T07:51:10.701Z,5.01
2023-02-12T07:54:05.736Z,4.65
2023-02-12T07:56:53.727Z,4.33
2023-02-12T07:59:29.083Z,4.08
2023-02-12T08:02:16.828Z,4.04
2023-02-12T08:04:58.808Z,6.23
2023-02-12T08:07:53.801Z,8.43
2023-02-12T08:10:41.723Z,7.60
2023-02-12T08:13:16.807Z,6.62
2023-02-12T08:16:13.735Z,5.92
2023-02-12T08:18:55.807Z,5.38
2023-02-12T08:21:36.713Z,5.11
2023-02-12T08:24:17.830Z,4.90
2023-02-12T08:26:58.737Z,4.72
2023-02-12T08:29:46.805Z,4.56
2023-02-12T08:32:22.210Z,4.42
2023-02-12T08:35:09.731Z,4.33
2023-02-12T08:37:51.168Z,5.81
2023-02-12T08:40:38.738Z,8.09
2023-02-12T08:43:26.735Z,7.42
2023-02-12T08:46:08.900Z,6.41
2023-02-12T08:49:00.728Z,5.78
2023-02-12T08:51:45.910Z,5.42
2023-02-12T08:54:41.681Z,5.16
2023-02-12T08:57:29.667Z,4.91
2023-02-12T09:00:05.106Z,4.64
2023-02-12T09:02:55.693Z,4.40
2023-02-12T09:05:30.819Z,4.17
2023-02-12T09:08:18.682Z,4.02
2023-02-12T09:11:00.770Z,3.91
2023-02-12T09:13:56.763Z,3.82
2023-02-12T09:16:46.716Z,3.74
2023-02-12T09:19:21.843Z,3.74
2023-02-12T09:22:09.898Z,3.79
2023-02-12T09:24:44.847Z,3.85
2023-02-12T09:27:33.178Z,3.83
2023-02-12T09:30:07.798Z,3.82
2023-02-12T09:32:55.893Z,3.86
2023-02-12T09:35:31.022Z,3.93
2023-02-12T09:38:18.684Z,4.21
2023-02-12T09:41:16.558Z,6.81
2023-02-12T09:44:02.105Z,9.05
2023-02-12T09:46:51.116Z,8.30
2023-02-12T09:49:32.653Z,7.39
2023-02-12T09:52:23.811Z,6.77
2023-02-12T09:55:06.682Z,6.39
2023-02-12T09:57:55.689Z,6.06
2023-02-12T10:00:31.992Z,5.80
2023-02-12T10:03:26.832Z,5.61
2023-02-12T10:06:28.727Z,5.42
2023-02-12T10:09:28.886Z,5.22
2023-02-12T10:12:31.701Z,5.08
2023-02-12T10:15:35.689Z,4.97
2023-02-12T10:18:26.681Z,4.86
2023-02-12T10:21:26.707Z,4.78
2023-02-12T10:24:45.079Z,4.75
2023-02-12T10:27:48.624Z,4.73
2023-02-12T10:30:45.713Z,4.75
2023-02-12T10:34:03.682Z,4.72
2023-02-12T10:36:42.837Z,4.77
2023-02-12T10:39:43.877Z,4.78
2023-02-12T10:42:44.720Z,4.81
2023-02-12T10:45:40.036Z,4.82
2023-02-12T10:48:32.755Z,4.80
2023-02-12T10:51:16.914Z,4.80
2023-02-12T10:53:58.877Z,4.87
2023-02-12T10:56:44.835Z,4.98
2023-02-12T10:59:31.615Z,5.08
2023-02-12T11:02:41.683Z,5.10
2023-02-12T11:05:25.955Z,5.08
2023-02-12T11:08:13.817Z,5.12
2023-02-12T11:10:58.811Z,5.14
2023-02-12T11:13:40.800Z,5.10
2023-02-12T11:16:21.917Z,5.03
2023-02-12T11:19:27.730Z,4.96
2023-02-12T11:22:16.697Z,4.98
2023-02-12T11:24:54.921Z,4.98
2023-02-12T11:27:43.951Z,4.99
2023-02-12T11:30:29.937Z,5.05
2023-02-12T11:33:55.675Z,5.13
2023-02-12T11:36:47.765Z,5.16
2023-02-12T11:39:23.485Z,5.12
2023-02-12T11:42:22.755Z,5.03
2023-02-12T11:44:58.623Z,4.95
2023-02-12T11:47:48.646Z,4.97
2023-02-12T11:50:27.371Z,5.14
2023-02-12T11:53:23.711Z,5.32
2023-02-12T11:56:15.305Z,5.50
2023-02-12T11:59:05.771Z,5.58
2023-02-12T12:02:00.909Z,5.63
2023-02-12T12:04:49.667Z,5.71
2023-02-12T12:07:37.762Z,5.81
2023-02-12T12:10:55.649Z,5.92
2023-02-12T12:13:37.498Z,5.97
2023-02-12T12:16:56.859Z,6.04
2023-02-12T12:20:01.739Z,6.18
2023-02-12T12:23:38.495Z,6.24
2023-02-12T12:26:29.982Z,6.14
2023-02-12T12:29:30.670Z,5.97
2023-02-12T12:32:05.656Z,5.82
2023-02-12T12:34:56.008Z,5.72
2023-02-12T12:37:48.828Z,5.60
2023-02-12T12:41:20.679Z,5.49
2023-02-12T12:44:12.312Z,5.50
2023-02-12T12:47:12.797Z,5.57
2023-02-12T12:50:25.728Z,5.64
2023-02-12T12:53:26.768Z,5.79
2023-02-12T12:56:16.879Z,5.95
2023-02-12T12:59:02.191Z,6.01
2023-02-12T13:01:58.709Z,6.05
2023-02-12T13:05:10.645Z,5.98
2023-02-12T13:07:50.770Z,5.81
2023-02-12T13:10:54.637Z,5.86
2023-02-12T13:13:51.653Z,6.05
2023-02-12T13:17:07.681Z,6.07
2023-02-12T13:20:11.872Z,5.93
2023-02-12T13:23:02.649Z,5.85
2023-02-12T13:25:40.797Z,6.30
2023-02-12T13:28:42.664Z,6.95
2023-02-12T13:31:33.117Z,7.62
2023-02-12T13:34:22.932Z,8.35
2023-02-12T13:37:07.821Z,9.12
2023-02-12T13:39:50.649Z,9.80
2023-02-12T13:42:34.966Z,10.48
2023-02-12T13:46:14.686Z,11.05
2023-02-12T13:48:55.764Z,11.86
2023-02-12T13:51:50.721Z,12.50
2023-02-12T13:54:51.006Z,13.06
2023-02-12T13:57:32.859Z,13.67
2023-02-12T14:00:51.783Z,14.36
2023-02-12T14:03:34.670Z,14.92
2023-02-12T14:06:25.820Z,15.21
2023-02-12T14:09:17.740Z,15.33
2023-02-12T14:12:07.663Z,15.33
2023-02-12T14:14:50.663Z,15.27
2023-02-12T14:17:34.755Z,14.97
2023-02-12T14:20:34.653Z,14.63
2023-02-12T14:23:42.635Z,14.27
2023-02-12T14:26:18.550Z,14.10
2023-02-12T14:29:08.683Z,14.00
2023-02-12T14:31:51.027Z,13.66
2023-02-12T14:34:42.816Z,13.25
2023-02-12T14:37:24.657Z,12.75
2023-02-12T14:40:50.662Z,12.20
2023-02-12T14:43:27.869Z,11.63
2023-02-12T14:46:37.729Z,11.15
2023-02-12T14:49:44.632Z,10.46
2023-02-12T14:52:18.768Z,9.91
2023-02-12T14:55:12.625Z,9.54
2023-02-12T14:57:55.643Z,9.04
2023-02-12T15:00:56.255Z,8.46
2023-02-12T15:03:44.662Z,7.88
2023-02-12T15:06:27.852Z,7.41
2023-02-12T15:09:23.680Z,6.99
2023-02-12T15:12:38.785Z,6.61
2023-02-12T15:15:26.720Z,6.22
2023-02-12T15:18:18.716Z,5.93
2023-02-12T15:21:32.641Z,5.64
2023-02-12T15:24:30.716Z,5.34
2023-02-12T15:27:13.635Z,5.08
2023-02-12T15:30:01.667Z,4.78
2023-02-12T15:32:37.757Z,4.49
2023-02-12T15:35:35.644Z,4.23
2023-02-12T15:38:11.860Z,3.98
2023-02-12T15:41:01.939Z,3.76
2023-02-12T15:43:38.772Z,3.56
2023-02-12T15:46:26.865Z,3.35
2023-02-12T15:49:08.859Z,3.16
2023-02-12T15:52:03.809Z,2.90
2023-02-12T15:54:55.827Z,2.60
2023-02-12T15:57:40.919Z,2.33
2023-02-12T16:00:49.621Z,2.14
2023-02-12T16:03:49.760Z,1.95
2023-02-12T16:06:25.799Z,1.72
2023-02-12T16:09:45.886Z,1.49
2023-02-12T16:12:30.696Z,1.93
2023-02-12T16:15:18.682Z,4.93
2023-02-12T16:17:59.936Z,6.93
2023-02-12T16:20:43.947Z,7.50
2023-02-12T16:23:32.778Z,6.13
2023-02-12T16:26:13.749Z,4.73
2023-02-12T16:28:55.653Z,3.91
2023-02-12T16:31:43.957Z,3.26
2023-02-12T16:34:37.580Z,2.75
2023-02-12T16:37:50.628Z,2.26
2023-02-12T16:40:40.617Z,1.85
2023-02-12T16:43:33.931Z,2.79
2023-02-12T16:46:15.766Z,5.98
2023-02-12T16:48:59.369Z,7.39
2023-02-12T16:51:47.734Z,6.13
2023-02-12T16:54:42.913Z,4.83
2023-02-12T16:57:30.712Z,3.86
2023-02-12T17:00:08.490Z,3.28
2023-02-12T17:02:56.701Z,2.82
2023-02-12T17:05:31.784Z,3.16
2023-02-12T17:08:28.632Z,6.24
2023-02-12T17:11:05.238Z,7.62
2023-02-12T17:13:57.739Z,6.41
2023-02-12T17:16:32.792Z,4.84
2023-02-12T17:19:20.609Z,3.83
2023-02-12T17:21:55.778Z,3.20
2023-02-12T17:24:43.624Z,2.76
2023-02-12T17:27:25.637Z,2.43
2023-02-12T17:30:14.614Z,4.06
2023-02-12T17:32:56.705Z,6.92
2023-02-12T17:35:52.618Z,6.72
2023-02-12T17:38:40.852Z,5.13
2023-02-12T17:41:18.819Z,4.10
2023-02-12T17:44:06.849Z,3.37
2023-02-12T17:46:42.128Z,2.85
2023-02-12T17:49:29.626Z,3.24
2023-02-12T17:52:11.606Z,6.19
2023-02-12T17:55:00.218Z,6.67
2023-02-12T17:57:34.736Z,5.22
2023-02-12T18:00:23.641Z,4.09
2023-02-12T18:03:00.757Z,3.30
2023-02-12T18:05:51.861Z,2.75
2023-02-12T18:08:27.825Z,2.93
2023-02-12T18:11:27.123Z,5.72
2023-02-12T18:14:14.764Z,7.43
2023-02-12T18:16:58.926Z,6.29
2023-02-12T18:19:54.623Z,5.00
2023-02-12T18:22:42.612Z,4.11
2023-02-12T18:25:18.732Z,3.53
2023-02-12T18:28:07.654Z,3.08
2023-02-12T18:30:51.174Z,2.76
2023-02-12T18:33:47.559Z,3.19
2023-02-12T18:36:35.619Z,6.32
2023-02-12T18:39:10.766Z,7.78
2023-02-12T18:41:53.797Z,6.54
2023-02-12T18:44:34.868Z,5.17
2023-02-12T18:47:19.502Z,4.16
2023-02-12T18:50:08.715Z,3.52
2023-02-12T18:53:04.863Z,3.01
2023-02-12T18:55:53.645Z,3.36
2023-02-12T18:58:28.765Z,6.21
2023-02-12T19:01:25.759Z,7.72
2023-02-12T19:04:08.250Z,6.48
2023-02-12T19:06:58.685Z,5.15
2023-02-12T19:09:41.618Z,4.28
2023-02-12T19:12:30.322Z,3.64
2023-02-12T19:15:13.619Z,3.14
2023-02-12T19:17:55.934Z,2.77
2023-02-12T19:20:36.603Z,3.09
2023-02-12T19:23:17.746Z,5.84
2023-02-12T19:25:58.604Z,8.07
2023-02-12T19:28:40.640Z,7.62
2023-02-12T19:31:35.807Z,6.11
2023-02-12T19:34:27.602Z,4.90
2023-02-12T19:37:02.729Z,4.17
2023-02-12T19:39:55.889Z,3.59
2023-02-12T19:42:31.225Z,4.01
2023-02-12T19:45:21.782Z,6.98
2023-02-12T19:47:57.243Z,7.16
2023-02-12T19:50:52.623Z,5.56
2023-02-12T19:53:28.192Z,4.26
2023-02-12T19:56:17.755Z,3.89
2023-02-12T19:58:53.808Z,6.31
2023-02-12T20:01:45.675Z,7.62
2023-02-12T20:04:22.732Z,6.20
2023-02-12T20:07:15.625Z,4.81
2023-02-12T20:09:58.032Z,3.82
2023-02-12T20:12:52.728Z,3.94
2023-02-12T20:15:44.607Z,7.01
2023-02-12T20:18:27.594Z,7.90
2023-02-12T20:21:24.703Z,6.39
2023-02-12T20:24:13.618Z,5.07
2023-02-12T20:26:55.584Z,4.30
2023-02-12T20:29:50.605Z,3.76
2023-02-12T20:32:40.687Z,3.83
2023-02-12T20:35:15.720Z,6.54
2023-02-12T20:38:03.747Z,8.19
2023-02-12T20:40:46.769Z,7.10
2023-02-12T20:43:43.781Z,5.82
2023-02-12T20:46:32.281Z,4.91
2023-02-12T20:49:06.792Z,4.36
2023-02-12T20:51:56.670Z,3.95
2023-02-12T20:54:38.578Z,3.62
2023-02-12T20:57:30.243Z,4.13
2023-02-12T21:00:05.096Z,7.07
2023-02-12T21:02:53.706Z,8.54
2023-02-12T21:05:29.155Z,7.32
2023-02-12T21:08:17.637Z,6.00
2023-02-12T21:10:59.587Z,5.05
2023-02-12T21:14:02.247Z,4.34
2023-02-12T21:16:49.761Z,3.80
2023-02-12T21:19:44.553Z,4.17
2023-02-12T21:22:32.558Z,7.37
2023-02-12T21:25:13.731Z,7.81
2023-02-12T21:27:54.594Z,6.36
2023-02-12T21:30:35.695Z,5.17
2023-02-12T21:33:16.579Z,4.41
2023-02-12T21:35:57.995Z,3.77
2023-02-12T21:38:41.559Z,3.63
2023-02-12T21:41:33.568Z,6.27
2023-02-12T21:44:14.255Z,8.14
2023-02-12T21:47:04.417Z,7.02
2023-02-12T21:49:45.560Z,5.74
2023-02-12T21:52:26.687Z,4.86
2023-02-12T21:55:07.645Z,4.28
2023-02-12T21:57:49.684Z,4.21
2023-02-12T22:00:33.602Z,6.76
2023-02-12T22:03:23.644Z,8.49
2023-02-12T22:06:03.995Z,7.26
2023-02-12T22:08:51.642Z,5.89
2023-02-12T22:11:33.611Z,4.98
2023-02-12T22:14:22.599Z,4.31
2023-02-12T22:17:10.550Z,3.81
2023-02-12T22:19:45.708Z,4.26
2023-02-12T22:22:33.542Z,7.21
2023-02-12T22:25:08.672Z,8.75
2023-02-12T22:27:56.974Z,7.50
2023-02-12T22:30:31.682Z,6.21
2023-02-12T22:33:19.744Z,5.28
2023-02-12T22:35:55.904Z,4.64
2023-02-12T22:38:45.757Z,4.60
2023-02-12T22:41:28.554Z,7.17
2023-02-12T22:44:25.539Z,8.60
2023-02-12T22:47:20.535Z,7.14
2023-02-12T22:50:08.563Z,5.83
2023-02-12T22:52:43.718Z,4.98
2023-02-12T22:55:31.759Z,4.46
2023-02-12T22:58:06.861Z,6.32
2023-02-12T23:00:56.045Z,8.60
2023-02-12T23:03:31.770Z,8.03
2023-02-12T23:06:24.697Z,6.64
2023-02-12T23:09:07.534Z,5.57
2023-02-12T23:12:02.742Z,4.83
2023-02-12T23:14:58.730Z,5.34
2023-02-12T23:17:47.719Z,8.32
2023-02-12T23:20:22.645Z,8.85
2023-02-12T23:23:10.661Z,7.38
2023-02-12T23:25:54.943Z,6.05
2023-02-12T23:28:37.086Z,5.10
2023-02-12T23:31:25.892Z,5.25
2023-02-12T23:34:08.751Z,7.95
2023-02-12T23:36:50.690Z,8.26
2023-02-12T23:39:32.706Z,6.86
2023-02-12T23:42:14.777Z,5.50
2023-02-12T23:44:56.905Z,4.61
2023-02-12T23:47:45.559Z,6.17
2023-02-12T23:50:20.008Z,8.26
2023-02-12T23:53:07.769Z,7.05
2023-02-12T23:55:46.424Z,5.65
2023-02-12T23:58:36.768Z,4.71
